Flynn, Texas
Current Conditions -  °F | °C
As of 11:55 AM on Thursday 30 Oct 2014 (Local Time) from KCFD Reporting Station
Clear Clear  
Wind Chill: 71°   Ceiling: Unl
Heat Index: 71°   Visibility: 10mi
Dew Point: 48°   Wind: 6mph
Humidity: 44%   Direction: 150°SSE
Pressure: 30.17"   Gusts: NA
Location:  31.15°N, 96.12°W
Report Text: KCFD 301655Z AUTO 15005KT 10SM CLR 22/09 A3017 RMK AO2 T02170091
Loading
Personal Weather Stations






























Interactive Weather Map
Tropical Storm Tracking
New forecast layout! Learn more

10-Day Weather Forecast

Advertisements
Track Severe Weather on mobile